Time;durP1;ratioP1;P1;durP2;ratioP2;P2;SDS_P1;SDS_P2;PMS_P1;PMS_P2;Temp;Humidity;BMP_temperature;BMP_pressure;BME280_temperature;BME280_humidity;BME280_pressure;Samples;Min_cycle;Max_cycle;Signal;HPM_P1;HPM_P2
2021/01/12 00:00:10;;;;;;;29.10;13.68;;;;;;;2.25;61.26;101162.70;1676900;84;21218;-62
2021/01/12 00:02:39;;;;;;;22.40;13.28;;;;;;;2.25;61.17;101159.64;1680507;84;21684;-62
2021/01/12 00:05:09;;;;;;;26.40;14.65;;;;;;;2.27;61.05;101160.89;1699856;83;21751;-63
2021/01/12 00:07:39;;;;;;;20.15;12.47;;;;;;;2.25;61.09;101160.11;1673487;84;21187;-63
2021/01/12 00:10:10;;;;;;;20.68;13.93;;;;;;;2.27;61.12;101164.79;1673122;84;21230;-63
2021/01/12 00:12:37;;;;;;;27.50;13.30;;;;;;;2.28;61.16;101165.20;1661484;84;21199;-63
2021/01/12 00:15:06;;;;;;;20.32;13.38;;;;;;;2.27;61.17;101159.17;1662181;84;21247;-62
2021/01/12 00:17:34;;;;;;;24.52;13.38;;;;;;;2.27;61.33;101166.96;1660519;84;22128;-64
2021/01/12 00:20:05;;;;;;;21.97;11.10;;;;;;;2.30;61.10;101165.53;1678217;84;21241;-64
2021/01/12 00:22:33;;;;;;;17.77;11.18;;;;;;;2.23;60.99;101171.84;1676614;84;21241;-64
2021/01/12 00:25:00;;;;;;;20.17;12.93;;;;;;;2.19;60.97;101175.45;1680585;84;21210;-64
2021/01/12 00:27:28;;;;;;;20.77;11.50;;;;;;;2.14;61.12;101169.55;1680274;84;22374;-64
2021/01/12 00:29:56;;;;;;;20.02;11.45;;;;;;;2.15;61.15;101167.34;1681055;84;21233;-64
2021/01/12 00:32:25;;;;;;;19.23;10.85;;;;;;;2.13;61.27;101163.49;1678497;84;21234;-64
2021/01/12 00:34:53;;;;;;;20.88;12.18;;;;;;;2.13;61.24;101163.95;1679517;84;21198;-62
2021/01/12 00:37:23;;;;;;;22.05;11.18;;;;;;;2.13;61.24;101162.20;1674697;84;21206;-63
2021/01/12 00:39:51;;;;;;;18.75;11.28;;;;;;;2.14;61.41;101161.31;1691892;83;21183;-63
2021/01/12 00:42:19;;;;;;;19.30;11.00;;;;;;;2.15;61.51;101162.14;1691983;83;22344;-63
2021/01/12 00:44:46;;;;;;;22.13;11.90;;;;;;;2.17;61.50;101157.75;1702183;83;21215;-62
2021/01/12 00:47:14;;;;;;;19.27;10.78;;;;;;;2.18;61.57;101159.45;1653478;84;21253;-63
2021/01/12 00:49:42;;;;;;;15.48;9.60;;;;;;;2.19;61.49;101159.87;1680028;84;21666;-63
2021/01/12 00:52:11;;;;;;;17.30;10.13;;;;;;;2.16;61.29;101154.77;1679950;84;21210;-63
2021/01/12 00:54:40;;;;;;;19.37;10.30;;;;;;;2.19;61.21;101161.16;1680627;84;21211;-63
2021/01/12 00:57:08;;;;;;;20.25;11.78;;;;;;;2.17;61.34;101156.45;1679711;84;21327;-63
2021/01/12 00:59:36;;;;;;;19.90;11.25;;;;;;;2.19;61.44;101158.57;1664857;84;21688;-65
2021/01/12 01:02:04;;;;;;;19.02;11.08;;;;;;;2.19;61.42;101154.22;1690841;83;21196;-62
2021/01/12 01:04:34;;;;;;;18.70;12.07;;;;;;;2.20;61.44;101155.92;1653008;84;21206;-62
2021/01/12 01:07:02;;;;;;;21.27;11.38;;;;;;;2.20;61.64;101155.05;1680882;84;21459;-62
2021/01/12 01:09:29;;;;;;;16.48;11.03;;;;;;;2.19;61.50;101154.67;1683474;83;21160;-62
2021/01/12 01:11:56;;;;;;;14.15;9.83;;;;;;;2.16;61.25;101150.88;1701779;82;21246;-61
2021/01/12 01:14:25;;;;;;;15.85;9.50;;;;;;;2.16;60.66;101152.17;1682406;83;22006;-62
2021/01/12 01:16:53;;;;;;;16.07;9.48;;;;;;;2.14;60.21;101156.11;1648949;85;21187;-61
2021/01/12 01:19:21;;;;;;;14.80;8.70;;;;;;;2.14;60.04;101159.17;1685841;83;21673;-63
2021/01/12 01:21:48;;;;;;;14.43;9.38;;;;;;;2.11;60.04;101160.56;1677803;83;21250;-62
2021/01/12 01:24:15;;;;;;;15.68;8.23;;;;;;;2.10;60.01;101160.15;1640490;84;21211;-62
2021/01/12 01:26:45;;;;;;;13.25;8.60;;;;;;;2.08;59.93;101161.50;1682505;83;21223;-62
2021/01/12 01:29:12;;;;;;;14.45;8.40;;;;;;;2.06;59.91;101160.70;1703274;82;21464;-63
2021/01/12 01:31:42;;;;;;;15.60;9.78;;;;;;;2.07;59.90;101164.14;1676560;83;22016;-63
2021/01/12 01:34:11;;;;;;;18.20;9.45;;;;;;;2.08;59.98;101167.15;1683187;83;21199;-63
2021/01/12 01:36:38;;;;;;;21.35;9.55;;;;;;;2.07;59.92;101158.95;1682725;83;21134;-63
2021/01/12 01:39:06;;;;;;;16.75;9.23;;;;;;;2.11;59.46;101160.56;1650111;85;21855;-62
2021/01/12 01:41:35;;;;;;;16.37;9.55;;;;;;;2.12;59.36;101155.75;1683612;83;21151;-62
2021/01/12 01:44:06;;;;;;;15.00;9.18;;;;;;;2.12;59.74;101151.43;1648769;85;21240;-62
2021/01/12 01:46:33;;;;;;;15.98;8.25;;;;;;;2.16;59.56;101153.47;1649734;85;21450;-63
2021/01/12 01:49:01;;;;;;;22.67;9.88;;;;;;;2.14;59.24;101157.41;1683070;83;21205;-62
2021/01/12 01:51:30;;;;;;;16.75;9.08;;;;;;;2.12;59.13;101157.05;1653848;85;21446;-63
2021/01/12 01:53:57;;;;;;;15.85;8.83;;;;;;;2.11;59.09;101154.91;1658611;84;21210;-63
2021/01/12 01:56:26;;;;;;;15.95;8.30;;;;;;;2.09;59.01;101163.20;1685180;83;21455;-62
2021/01/12 01:58:54;;;;;;;15.43;8.48;;;;;;;2.10;58.61;101154.95;1687312;83;21272;-63
2021/01/12 02:01:21;;;;;;;14.70;7.72;;;;;;;2.07;58.30;101157.65;1653560;85;21171;-62
2021/01/12 02:04:00;;;;;;;16.30;8.68;;;;;;;2.06;58.06;101159.86;1638999;84;21211;-62
2021/01/12 02:09:43;;;;;;;18.42;8.20;;;;;;;2.10;57.73;101149.77;1867190;74;22233;-62
2021/01/12 02:12:36;;;;;;;11.43;6.80;;;;;;;2.07;57.61;101149.86;1782653;78;21587;-62
2021/01/12 02:15:06;;;;;;;13.10;7.62;;;;;;;2.06;57.44;101147.72;1806523;78;21387;-62
2021/01/12 02:17:33;;;;;;;13.55;7.58;;;;;;;2.03;57.26;101141.33;1773211;79;21223;-62
2021/01/12 02:20:04;;;;;;;13.83;7.08;;;;;;;2.01;57.45;101140.08;1757366;79;21265;-62
2021/01/12 02:22:31;;;;;;;11.00;6.70;;;;;;;2.00;57.47;101138.39;1774588;78;21153;-62
2021/01/12 02:24:59;;;;;;;13.05;7.40;;;;;;;2.01;57.45;101134.88;1775915;79;21713;-63
2021/01/12 02:27:26;;;;;;;14.00;8.30;;;;;;;2.00;57.37;101131.91;1775179;78;21326;-62
2021/01/12 02:29:54;;;;;;;12.33;7.37;;;;;;;2.01;57.00;101129.69;1751479;79;21670;-62
2021/01/12 02:32:21;;;;;;;11.90;7.30;;;;;;;2.01;56.97;101125.80;1776647;78;21196;-62
2021/01/12 02:34:49;;;;;;;12.20;7.05;;;;;;;2.01;56.82;101124.95;1775730;79;21775;-62
2021/01/12 02:37:17;;;;;;;10.72;6.75;;;;;;;2.03;56.70;101121.43;1778092;78;21112;-62
2021/01/12 02:39:44;;;;;;;12.95;7.15;;;;;;;2.06;56.48;101114.44;1775880;79;21267;-62
2021/01/12 02:42:16;;;;;;;14.53;7.70;;;;;;;2.08;56.25;101117.36;1750927;79;21223;-63
2021/01/12 02:44:44;;;;;;;15.68;8.58;;;;;;;2.09;56.24;101113.88;1776698;79;21599;-63
2021/01/12 02:47:13;;;;;;;12.95;7.83;;;;;;;2.13;56.38;101106.83;1776584;79;21179;-63
2021/01/12 02:49:43;;;;;;;14.83;6.60;;;;;;;2.16;56.33;101111.93;1809674;78;21183;-63
2021/01/12 02:54:48;;;;;;;16.55;9.63;;;;;;;2.19;56.10;101100.14;1841341;74;27935;-63
2021/01/12 02:57:16;;;;;;;10.53;5.83;;;;;;;2.40;55.83;101103.75;1825515;77;21179;-62
2021/01/12 02:59:46;;;;;;;10.95;6.25;;;;;;;2.61;55.32;101104.77;1824828;77;21030;-62
2021/01/12 03:02:14;;;;;;;11.97;6.70;;;;;;;2.57;54.83;101099.26;1824296;77;21132;-63
2021/01/12 03:04:41;;;;;;;11.00;5.72;;;;;;;2.53;54.71;101102.88;1824321;77;21132;-62
2021/01/12 03:07:09;;;;;;;12.58;7.17;;;;;;;2.47;55.00;101096.59;1825546;77;21202;-63
2021/01/12 03:09:36;;;;;;;12.98;6.97;;;;;;;2.46;55.27;101094.45;1823245;77;21156;-63
2021/01/12 03:12:05;;;;;;;11.03;6.55;;;;;;;2.47;55.31;101088.80;1797185;77;21488;-63
2021/01/12 03:14:33;;;;;;;12.23;6.67;;;;;;;2.44;55.43;101087.59;1824161;77;21226;-62
2021/01/12 03:17:00;;;;;;;13.28;6.90;;;;;;;2.43;55.30;101088.06;1824972;77;21199;-62
2021/01/12 03:19:29;;;;;;;15.48;8.53;;;;;;;2.44;55.08;101081.11;1825036;77;21186;-62
2021/01/12 03:21:56;;;;;;;13.10;7.70;;;;;;;2.43;55.18;101078.13;1825420;77;21143;-62
2021/01/12 03:24:24;;;;;;;11.93;6.92;;;;;;;2.41;54.78;101089.41;1824708;76;21325;-60
2021/01/12 03:26:51;;;;;;;13.35;6.85;;;;;;;2.39;54.91;101087.78;1822953;77;21170;-61
2021/01/12 03:29:19;;;;;;;14.73;7.08;;;;;;;2.36;54.66;101082.23;1824125;77;21160;-62
2021/01/12 03:31:46;;;;;;;11.93;6.40;;;;;;;2.33;54.77;101080.19;1807075;77;21183;-63
2021/01/12 03:34:14;;;;;;;11.08;6.50;;;;;;;2.33;54.88;101081.03;1823855;76;21163;-62
2021/01/12 03:36:42;;;;;;;12.80;6.40;;;;;;;2.35;54.95;101082.28;1823663;77;21268;-62
2021/01/12 03:39:10;;;;;;;12.45;7.08;;;;;;;2.35;54.90;101072.73;1804967;77;21178;-62
2021/01/12 03:41:37;;;;;;;12.43;7.12;;;;;;;2.36;54.99;101067.94;1824915;77;21159;-62
2021/01/12 03:44:05;;;;;;;12.80;6.70;;;;;;;2.36;54.84;101067.94;1798020;77;21179;-62
2021/01/12 03:46:33;;;;;;;10.88;6.65;;;;;;;2.33;54.88;101064.15;1823968;77;21182;-63
2021/01/12 03:49:00;;;;;;;14.75;7.78;;;;;;;2.29;54.97;101057.84;1815526;77;22046;-62
2021/01/12 03:51:30;;;;;;;13.03;6.78;;;;;;;2.27;55.14;101053.13;1824559;77;21168;-62
2021/01/12 04:07:01;;;;;;;14.15;8.33;;;;;;;3.77;51.98;101039.27;1834157;75;22687;-61
2021/01/12 04:09:29;;;;;;;15.10;7.97;;;;;;;3.87;51.33;101040.10;1803433;77;21630;-62
2021/01/12 04:12:15;;;;;;;14.47;8.38;;;;;;;3.78;51.33;101037.03;1867165;75;21814;-62
2021/01/12 04:14:43;;;;;;;14.83;7.33;;;;;;;3.58;51.56;101032.63;1838874;76;21148;-63
2021/01/12 04:17:11;;;;;;;13.60;7.97;;;;;;;3.43;52.13;101032.79;1811501;76;21434;-62
2021/01/12 04:19:39;;;;;;;14.78;8.33;;;;;;;3.35;52.47;101042.22;1805363;77;21219;-60
2021/01/12 04:22:07;;;;;;;22.52;8.90;;;;;;;3.23;52.84;101037.48;1775587;77;21187;-59
2021/01/12 04:24:34;;;;;;;17.37;10.95;;;;;;;3.10;53.38;101035.82;1775271;78;21590;-60
2021/01/12 04:27:01;;;;;;;16.67;9.55;;;;;;;2.92;53.99;101029.09;1775049;78;21144;-61
2021/01/12 04:29:29;;;;;;;14.47;9.63;;;;;;;2.76;54.60;101030.60;1767670;79;21249;-60
2021/01/12 04:31:56;;;;;;;18.80;10.03;;;;;;;2.64;55.22;101034.50;1808713;77;21191;-62
2021/01/12 04:34:24;;;;;;;19.35;9.70;;;;;;;2.54;55.61;101027.48;1770425;78;21375;-61
2021/01/12 04:36:51;;;;;;;17.48;9.28;;;;;;;2.44;56.05;101033.92;1809487;78;21179;-63
2021/01/12 04:39:19;;;;;;;16.93;10.43;;;;;;;2.37;56.45;101026.80;1780172;78;21199;-61
2021/01/12 04:41:47;;;;;;;20.30;11.18;;;;;;;2.29;56.93;101018.42;1808399;77;23172;-61
2021/01/12 04:44:14;;;;;;;20.97;10.63;;;;;;;2.21;57.45;101028.23;1808857;77;21188;-61
2021/01/12 04:46:43;;;;;;;16.75;9.73;;;;;;;2.16;57.95;101026.25;1765810;80;21183;-61
2021/01/12 04:49:10;;;;;;;18.98;11.00;;;;;;;2.10;58.31;101027.75;1799527;77;21207;-59
2021/01/12 04:51:37;;;;;;;19.82;10.05;;;;;;;2.05;58.71;101024.00;1742843;78;21227;-62
2021/01/12 04:54:05;;;;;;;16.67;9.80;;;;;;;2.01;58.95;101020.67;1740383;80;21266;-62
2021/01/12 04:56:32;;;;;;;14.70;9.45;;;;;;;1.98;59.28;101027.25;1763364;79;21346;-63
2021/01/12 04:58:59;;;;;;;21.97;10.75;;;;;;;1.97;59.44;101029.47;1752784;78;21207;-62
2021/01/12 05:01:29;;;;;;;17.45;9.65;;;;;;;1.92;59.74;101027.48;1767638;79;21224;-62
2021/01/12 05:03:56;;;;;;;17.80;9.85;;;;;;;1.90;59.91;101030.59;1768883;79;21171;-61
2021/01/12 05:06:26;;;;;;;20.15;9.53;;;;;;;1.89;60.15;101025.45;1808486;77;21204;-62
2021/01/12 05:08:56;;;;;;;18.82;11.05;;;;;;;1.88;60.34;101024.58;1808434;77;21185;-63
2021/01/12 05:11:33;;;;;;;18.00;9.73;;;;;;;1.84;60.61;101021.23;1751013;78;21202;-63
2021/01/12 05:14:06;;;;;;;19.82;9.80;;;;;;;1.84;60.82;101021.23;1809171;77;21172;-63
2021/01/12 05:16:47;;;;;;;23.57;10.72;;;;;;;1.80;61.03;101023.98;1776055;78;21170;-62
2021/01/12 05:19:27;;;;;;;18.90;12.13;;;;;;;1.79;61.22;101025.73;1809216;78;21353;-63
2021/01/12 05:22:02;;;;;;;19.10;10.38;;;;;;;1.74;61.30;101022.91;1805666;77;21572;-62
2021/01/12 05:24:31;;;;;;;21.63;11.57;;;;;;;1.71;61.49;101027.73;1745160;78;21211;-62
2021/01/12 05:27:06;;;;;;;17.48;10.55;;;;;;;1.70;61.66;101031.67;1745740;79;21191;-64
2021/01/12 05:29:34;;;;;;;21.17;10.80;;;;;;;1.67;61.89;101034.77;1771015;79;21187;-63
2021/01/12 05:32:04;;;;;;;18.82;11.90;;;;;;;1.64;62.12;101036.16;1764577;79;21306;-64
2021/01/12 05:34:35;;;;;;;22.98;11.48;;;;;;;1.64;62.25;101036.63;1743387;80;21655;-64
2021/01/12 05:37:07;;;;;;;18.23;10.95;;;;;;;1.66;62.34;101042.17;1806660;77;21210;-61
2021/01/12 05:39:39;;;;;;;20.60;11.18;;;;;;;1.66;62.51;101042.17;1763484;79;21208;-62
2021/01/12 05:42:10;;;;;;;22.62;11.18;;;;;;;1.65;62.63;101040.47;1807028;77;21202;-63
2021/01/12 05:44:40;;;;;;;19.70;12.65;;;;;;;1.62;62.85;101042.31;1754728;78;21278;-63
2021/01/12 05:47:10;;;;;;;22.30;11.53;;;;;;;1.60;62.95;101039.77;1739423;80;21529;-64
2021/01/12 05:49:37;;;;;;;20.27;10.55;;;;;;;1.59;63.17;101042.41;1759206;79;21170;-62
2021/01/12 05:52:05;;;;;;;23.40;11.60;;;;;;;1.61;63.22;101045.34;1770126;78;21754;-63
2021/01/12 05:54:36;;;;;;;21.57;10.40;;;;;;;1.60;63.38;101046.72;1805520;77;21199;-63
2021/01/12 05:57:07;;;;;;;21.35;11.83;;;;;;;1.61;63.39;101046.63;1789418;78;21212;-63
2021/01/12 05:59:36;;;;;;;21.25;11.45;;;;;;;1.61;63.39;101050.98;1766636;80;21200;-63
2021/01/12 06:02:09;;;;;;;24.72;12.07;;;;;;;1.63;63.27;101042.70;1766787;79;21187;-63
2021/01/12 06:04:37;;;;;;;18.57;11.15;;;;;;;1.62;63.27;101045.75;1772079;78;21544;-63
2021/01/12 06:07:05;;;;;;;20.92;11.38;;;;;;;1.64;63.12;101038.77;1806769;77;21218;-64
2021/01/12 06:09:33;;;;;;;20.30;10.90;;;;;;;1.61;63.18;101041.45;1760958;78;22265;-64
2021/01/12 06:12:01;;;;;;;19.27;10.90;;;;;;;1.58;63.22;101036.39;1744049;78;21628;-64
2021/01/12 06:14:30;;;;;;;16.10;10.05;;;;;;;1.56;63.21;101045.09;1814677;78;21210;-64
2021/01/12 06:17:01;;;;;;;18.42;11.03;;;;;;;1.53;63.32;101039.58;1783875;78;21183;-64
2021/01/12 06:19:29;;;;;;;17.98;10.72;;;;;;;1.51;63.20;101043.94;1811366;78;21198;-64
2021/01/12 06:22:19;;;;;;;22.20;10.85;;;;;;;1.51;63.21;101034.86;1786596;78;22933;-65
2021/01/12 06:24:54;;;;;;;18.73;9.73;;;;;;;1.52;63.27;101037.87;1776785;78;21230;-64
2021/01/12 06:27:29;;;;;;;18.35;10.40;;;;;;;1.49;63.29;101030.17;1812700;78;21183;-65
2021/01/12 06:30:00;;;;;;;21.75;10.75;;;;;;;1.48;63.37;101034.98;1799010;78;21151;-65
2021/01/12 06:32:29;;;;;;;20.57;9.85;;;;;;;1.48;63.39;101037.13;1774513;78;21227;-63
2021/01/12 06:35:01;;;;;;;16.77;9.63;;;;;;;1.52;63.18;101043.05;1775648;78;23284;-65
2021/01/12 06:37:40;;;;;;;15.28;8.83;;;;;;;1.53;62.86;101036.98;1784683;78;21186;-65
2021/01/12 06:40:12;;;;;;;22.90;10.78;;;;;;;1.54;62.72;101033.47;1787605;78;21508;-66
2021/01/12 06:42:40;;;;;;;18.20;10.75;;;;;;;1.54;62.83;101036.06;1813968;78;21582;-63
2021/01/12 06:45:09;;;;;;;16.65;10.38;;;;;;;1.59;62.89;101036.77;1779958;78;22711;-63
2021/01/12 06:47:37;;;;;;;18.60;11.18;;;;;;;1.65;62.93;101040.47;1817057;78;21197;-62
2021/01/12 06:50:16;;;;;;;18.05;10.00;;;;;;;1.72;62.88;101033.80;1815123;78;21162;-66
2021/01/12 06:52:48;;;;;;;15.78;8.90;;;;;;;1.73;62.82;101031.58;1778546;78;21650;-62
2021/01/12 06:55:17;;;;;;;16.60;9.40;;;;;;;1.73;62.81;101041.95;1786189;78;21685;-61
2021/01/12 06:57:49;;;;;;;15.50;8.98;;;;;;;1.70;62.74;101044.22;1784562;78;21600;-60
2021/01/12 07:00:39;;;;;;;15.83;8.98;;;;;;;1.67;62.48;101033.48;1788621;78;21213;-61
2021/01/12 07:03:09;;;;;;;17.07;9.90;;;;;;;1.65;62.47;101033.14;1760057;79;21183;-62
2021/01/12 07:05:44;;;;;;;18.92;9.55;;;;;;;1.60;62.68;101033.28;1762998;79;21570;-61
2021/01/12 07:08:12;;;;;;;19.07;9.80;;;;;;;1.63;62.61;101028.00;1761805;79;21248;-61
2021/01/12 07:10:46;;;;;;;18.40;9.90;;;;;;;1.63;62.49;101028.00;1800483;78;21554;-61
2021/01/12 07:13:14;;;;;;;14.98;8.23;;;;;;;1.63;62.38;101024.54;1760050;79;21419;-61
2021/01/12 07:15:49;;;;;;;16.25;8.98;;;;;;;1.59;62.51;101017.77;1796368;78;21448;-61
2021/01/12 07:18:22;;;;;;;18.00;9.53;;;;;;;1.62;62.58;101020.27;1782062;78;21178;-62
2021/01/12 07:20:50;;;;;;;16.87;9.98;;;;;;;1.61;62.48;101015.97;1796759;78;21199;-61
2021/01/12 07:23:19;;;;;;;17.05;10.05;;;;;;;1.62;62.60;101018.52;1783726;78;21161;-61
2021/01/12 07:25:46;;;;;;;16.23;8.23;;;;;;;1.60;62.49;101016.42;1796811;78;21239;-61
2021/01/12 07:28:17;;;;;;;16.70;8.95;;;;;;;1.61;62.45;101019.40;1773210;77;21191;-60
2021/01/12 07:30:48;;;;;;;14.68;8.65;;;;;;;1.62;62.56;101022.41;1797618;78;21183;-60
2021/01/12 07:33:24;;;;;;;15.03;9.05;;;;;;;1.68;62.28;101017.45;1796201;78;21206;-60
2021/01/12 07:35:55;;;;;;;16.17;8.45;;;;;;;1.65;61.99;101014.98;1797020;78;21226;-60
2021/01/12 07:38:28;;;;;;;15.50;8.20;;;;;;;1.67;61.57;101003.64;1797853;78;21839;-60
2021/01/12 07:40:58;;;;;;;11.73;7.47;;;;;;;1.61;61.39;101010.32;1784855;77;22359;-60
2021/01/12 07:43:26;;;;;;;13.20;8.08;;;;;;;1.61;61.20;101009.02;1798831;78;21535;-60
2021/01/12 07:45:56;;;;;;;16.57;7.60;;;;;;;1.59;61.16;101009.53;1782051;78;21200;-61
2021/01/12 07:48:23;;;;;;;15.72;9.00;;;;;;;1.62;61.10;101010.73;1796449;77;21197;-60
2021/01/12 07:50:53;;;;;;;12.25;7.53;;;;;;;1.62;60.96;101004.70;1796832;78;21209;-61
2021/01/12 07:53:21;;;;;;;14.73;8.30;;;;;;;1.66;60.70;101008.45;1799102;78;21196;-61
2021/01/12 07:55:49;;;;;;;17.87;9.65;;;;;;;1.65;60.44;101004.61;1798235;78;21194;-60
2021/01/12 07:58:18;;;;;;;14.85;8.43;;;;;;;1.62;60.36;101001.66;1758123;80;21393;-62
2021/01/12 08:00:49;;;;;;;13.35;6.95;;;;;;;1.57;60.22;100997.06;1797946;77;21209;-61
2021/01/12 08:03:28;;;;;;;15.90;7.35;;;;;;;1.57;60.28;101004.01;1770931;79;21499;-61
2021/01/12 08:06:02;;;;;;;12.63;7.20;;;;;;;1.55;60.37;100995.44;1788623;79;21163;-61
2021/01/12 08:08:31;;;;;;;15.13;7.05;;;;;;;1.56;60.31;101000.55;1754588;79;21227;-62
2021/01/12 08:10:59;;;;;;;16.00;7.78;;;;;;;1.54;60.42;100998.45;1791124;77;21268;-61
2021/01/12 08:13:27;;;;;;;15.75;8.15;;;;;;;1.54;60.08;100997.16;1793368;78;21172;-63
2021/01/12 08:15:55;;;;;;;14.43;7.78;;;;;;;1.51;60.36;100996.41;1726732;81;21214;-63
2021/01/12 08:18:23;;;;;;;40.48;10.88;;;;;;;1.53;60.57;100998.08;1757278;80;21258;-62
2021/01/12 08:20:55;;;;;;;15.48;9.25;;;;;;;1.57;60.64;101000.11;1788192;79;21100;-61
2021/01/12 08:23:23;;;;;;;15.53;7.92;;;;;;;1.61;60.82;100998.64;1750394;80;21202;-59
2021/01/12 08:25:51;;;;;;;14.20;8.33;;;;;;;1.63;60.66;100999.89;1745643;81;21539;-58
2021/01/12 08:28:18;;;;;;;16.30;7.28;;;;;;;1.63;60.75;101004.66;1790352;79;21645;-59
2021/01/12 08:30:47;;;;;;;11.50;6.28;;;;;;;1.66;60.77;100998.50;1776544;79;21215;-60
2021/01/12 08:33:29;;;;;;;12.13;7.65;;;;;;;1.68;60.63;100995.40;1789603;77;21129;-60
2021/01/12 08:36:10;;;;;;;12.45;6.83;;;;;;;1.74;60.64;100992.61;1742125;81;21202;-59
2021/01/12 08:38:41;;;;;;;12.63;7.55;;;;;;;1.73;60.21;100990.94;1777966;79;21657;-60
2021/01/12 08:41:09;;;;;;;11.50;7.70;;;;;;;1.72;59.74;100991.82;1755215;80;21231;-60
2021/01/12 08:43:36;;;;;;;18.82;7.60;;;;;;;1.70;59.90;100988.86;1779289;79;21547;-60
2021/01/12 08:46:06;;;;;;;14.73;6.67;;;;;;;1.66;59.83;100985.53;1790718;79;21201;-58
2021/01/12 08:48:33;;;;;;;14.05;6.72;;;;;;;1.66;59.98;100990.72;1723011;80;21246;-59
2021/01/12 08:51:15;;;;;;;12.05;6.90;;;;;;;1.71;59.71;100985.38;1790095;79;21614;-58
2021/01/12 08:53:46;;;;;;;11.57;6.60;;;;;;;1.75;59.33;100990.86;1764296;79;21994;-59
2021/01/12 08:56:15;;;;;;;16.35;7.40;;;;;;;1.74;59.13;100989.17;1791968;78;21208;-59
2021/01/12 08:58:43;;;;;;;16.05;6.67;;;;;;;1.70;58.92;100980.66;1765269;79;21189;-59
2021/01/12 09:01:14;;;;;;;16.12;7.47;;;;;;;1.73;59.09;100985.75;1750288;81;21974;-59
2021/01/12 09:03:45;;;;;;;10.40;6.45;;;;;;;1.75;58.86;100981.77;1791479;77;21177;-60
2021/01/12 09:06:26;;;;;;;11.75;6.50;;;;;;;1.76;58.29;100975.70;1722916;80;21213;-59
2021/01/12 09:08:52;;;;;;;13.00;7.12;;;;;;;1.73;58.19;100979.26;1789144;79;21242;-60
2021/01/12 09:11:21;;;;;;;13.68;8.33;;;;;;;1.73;58.30;100975.80;1731679;81;21226;-63
2021/01/12 09:13:51;;;;;;;11.88;7.25;;;;;;;1.72;58.65;100972.36;1789633;79;21995;-60
2021/01/12 09:16:21;;;;;;;13.28;6.70;;;;;;;1.75;58.73;100972.69;1725012;81;21222;-64
2021/01/12 09:18:50;;;;;;;13.03;7.28;;;;;;;1.80;58.51;100969.48;1790019;79;22227;-60
2021/01/12 09:21:22;;;;;;;17.42;8.35;;;;;;;1.82;58.24;100965.95;1750887;80;21611;-61
2021/01/12 09:23:50;;;;;;;14.65;6.83;;;;;;;1.85;58.27;100961.12;1778373;78;21784;-61
2021/01/12 09:26:20;;;;;;;14.33;7.28;;;;;;;1.91;57.88;100958.30;1776345;79;21219;-61
2021/01/12 09:28:50;;;;;;;15.05;8.80;;;;;;;1.93;57.86;100964.27;1779143;79;21643;-60
2021/01/12 09:31:18;;;;;;;17.70;7.83;;;;;;;1.95;57.58;100960.33;1754505;80;21215;-61
2021/01/12 09:34:07;;;;;;;13.88;7.10;;;;;;;1.90;57.31;100951.43;1790093;79;21202;-62
2021/01/12 09:36:35;;;;;;;13.90;6.83;;;;;;;1.92;57.35;100950.92;1755457;79;21180;-61
2021/01/12 09:39:12;;;;;;;15.75;8.33;;;;;;;1.89;57.08;100939.34;1806010;77;21651;-62
2021/01/12 09:41:39;;;;;;;18.75;7.45;;;;;;;1.89;56.83;100932.86;1807428;77;21168;-62
2021/01/12 09:44:08;;;;;;;15.35;7.25;;;;;;;1.88;56.45;100940.23;1805322;77;21269;-62
2021/01/12 09:46:37;;;;;;;12.13;7.40;;;;;;;1.89;56.35;100934.16;1807821;77;21227;-62
2021/01/12 09:49:05;;;;;;;13.28;7.03;;;;;;;1.90;56.23;100930.67;1783953;77;21199;-61
2021/01/12 09:51:34;;;;;;;18.98;8.83;;;;;;;1.94;56.19;100920.56;1753473;79;21235;-60
2021/01/12 09:54:01;;;;;;;14.43;7.45;;;;;;;1.98;55.91;100913.51;1753026;79;21200;-61
2021/01/12 09:56:29;;;;;;;18.12;8.15;;;;;;;1.97;56.16;100897.56;1771079;79;21232;-60
2021/01/12 09:58:57;;;;;;;13.83;7.80;;;;;;;1.97;55.62;100891.91;1773237;79;21648;-61
2021/01/12 10:01:25;;;;;;;13.55;7.92;;;;;;;1.95;55.50;100893.72;1773020;78;21232;-61
2021/01/12 10:03:55;;;;;;;15.80;7.62;;;;;;;1.91;55.39;100896.47;1772874;79;21260;-60
2021/01/12 10:06:22;;;;;;;11.10;6.78;;;;;;;1.87;55.76;100890.55;1772215;79;21594;-61
2021/01/12 10:08:50;;;;;;;15.05;8.13;;;;;;;1.86;55.60;100879.76;1752346;79;21210;-61
2021/01/12 10:11:18;;;;;;;13.65;8.83;;;;;;;1.84;55.89;100868.13;1771300;78;21247;-62
2021/01/12 10:13:46;;;;;;;12.95;7.58;;;;;;;1.90;55.84;100865.79;1770826;79;21224;-63
2021/01/12 10:16:21;;;;;;;12.95;7.70;;;;;;;1.90;55.63;100858.00;1773400;79;21843;-63
2021/01/12 10:18:49;;;;;;;12.78;7.62;;;;;;;1.91;55.82;100860.14;1750318;79;21839;-60
2021/01/12 10:21:18;;;;;;;14.95;7.90;;;;;;;1.89;55.47;100857.59;1776686;78;22821;-60
2021/01/12 10:23:46;;;;;;;13.93;7.67;;;;;;;1.89;55.58;100853.70;1780647;77;21273;-61
2021/01/12 10:26:16;;;;;;;15.68;7.55;;;;;;;1.85;55.75;100848.24;1807258;77;21239;-63
2021/01/12 10:28:43;;;;;;;12.53;7.17;;;;;;;1.85;55.94;100837.41;1805532;77;21176;-61
2021/01/12 10:31:14;;;;;;;13.88;7.12;;;;;;;1.85;55.32;100828.78;1748821;79;21203;-60
2021/01/12 10:33:41;;;;;;;14.28;7.03;;;;;;;1.89;54.98;100824.32;1777319;79;21213;-61
2021/01/12 10:36:13;;;;;;;12.50;7.42;;;;;;;1.87;54.87;100823.08;1806880;77;21182;-65
2021/01/12 10:38:42;;;;;;;14.95;7.37;;;;;;;1.89;55.03;100814.77;1804284;77;21183;-61
2021/01/12 10:41:09;;;;;;;13.80;7.47;;;;;;;1.88;54.84;100811.77;1778892;77;21125;-61
2021/01/12 10:43:37;;;;;;;16.62;7.95;;;;;;;1.88;54.79;100803.98;1807673;77;21187;-60
2021/01/12 10:46:05;;;;;;;11.88;7.47;;;;;;;1.88;54.80;100801.39;1805230;77;21211;-61
2021/01/12 10:48:32;;;;;;;12.78;7.25;;;;;;;1.87;54.47;100785.45;1751585;79;21258;-62
2021/01/12 10:51:00;;;;;;;17.17;7.80;;;;;;;1.86;54.74;100784.58;1808326;77;21208;-61
2021/01/12 10:53:27;;;;;;;14.18;7.75;;;;;;;1.92;54.86;100787.88;1784105;77;21131;-61
2021/01/12 10:55:57;;;;;;;12.50;7.25;;;;;;;1.95;55.10;100787.30;1805401;77;21215;-60
2021/01/12 10:58:25;;;;;;;14.55;7.30;;;;;;;2.04;54.81;100797.78;1784264;77;21560;-62
2021/01/12 11:00:53;;;;;;;13.75;8.03;;;;;;;2.04;55.00;100792.59;1805164;77;21183;-60
2021/01/12 11:03:21;;;;;;;13.30;6.45;;;;;;;2.10;55.12;100801.45;1753927;79;21179;-61
2021/01/12 11:05:54;;;;;;;9.75;6.25;;;;;;;2.12;54.73;100797.47;1778407;79;21212;-63
2021/01/12 11:08:23;;;;;;;13.75;6.83;;;;;;;2.17;54.43;100796.84;1775969;79;21181;-66
2021/01/12 11:10:53;;;;;;;14.07;6.97;;;;;;;2.16;54.30;100800.36;1752913;79;21255;-65
2021/01/12 11:13:21;;;;;;;19.35;7.37;;;;;;;2.18;54.42;100795.49;1785792;76;21179;-61
2021/01/12 11:15:50;;;;;;;13.08;7.33;;;;;;;2.16;54.20;100793.41;1750743;79;21219;-61
2021/01/12 11:18:18;;;;;;;12.10;6.25;;;;;;;2.13;54.14;100792.69;1812885;76;21187;-61
2021/01/12 11:20:46;;;;;;;13.40;6.90;;;;;;;2.07;54.15;100791.62;1732286;79;21191;-62
2021/01/12 11:23:14;;;;;;;11.53;6.30;;;;;;;2.00;54.17;100793.17;1749030;79;21213;-62
2021/01/12 11:25:42;;;;;;;13.00;6.45;;;;;;;1.90;54.32;100796.15;1804491;77;21206;-61
2021/01/12 11:28:11;;;;;;;12.37;6.22;;;;;;;1.85;54.48;100794.58;1805424;77;21183;-64
2021/01/12 11:30:40;;;;;;;11.90;6.15;;;;;;;1.83;54.76;100794.23;1805562;77;21188;-60
2021/01/12 11:33:10;;;;;;;13.43;6.12;;;;;;;1.84;54.66;100774.72;1751613;79;21191;-60
2021/01/12 11:35:37;;;;;;;14.25;6.85;;;;;;;1.83;54.62;100776.06;1725148;80;22536;-61
2021/01/12 11:38:06;;;;;;;11.45;6.35;;;;;;;1.85;54.61;100766.04;1770804;80;21246;-61
2021/01/12 11:40:34;;;;;;;15.50;6.90;;;;;;;1.88;54.64;100765.52;1780612;77;21212;-61
2021/01/12 11:43:03;;;;;;;9.05;6.05;;;;;;;1.92;54.97;100754.97;1749132;80;21242;-63
2021/01/12 11:45:31;;;;;;;11.08;6.22;;;;;;;1.97;54.74;100747.02;1795454;77;21187;-61
2021/01/12 11:47:58;;;;;;;11.48;6.72;;;;;;;2.03;54.44;100742.88;1752150;80;21567;-61
2021/01/12 11:50:26;;;;;;;11.53;6.47;;;;;;;2.07;54.24;100743.16;1798860;77;22703;-64
2021/01/12 11:52:57;;;;;;;10.98;5.72;;;;;;;2.10;54.23;100738.28;1755493;80;22715;-62